createdAt,value
2023-01-05T00:00:32.816Z,97026.69
2023-01-05T00:05:35.192Z,97014.88
2023-01-05T00:10:56.828Z,97017.88
2023-01-05T00:16:18.580Z,97018.41
2023-01-05T00:21:39.327Z,97017.94
2023-01-05T00:26:41.926Z,97002.81
2023-01-05T00:31:44.455Z,96985.81
2023-01-05T00:36:46.668Z,97009.06
2023-01-05T00:41:48.829Z,97022.97
2023-01-05T00:46:51.183Z,96995.13
2023-01-05T00:51:53.568Z,97019.53
2023-01-05T00:56:55.823Z,96981.63
2023-01-05T01:01:58.320Z,97012.44
2023-01-05T01:07:01.740Z,97024.56
2023-01-05T01:12:04.288Z,96988.06
2023-01-05T01:17:06.593Z,96992.22
2023-01-05T01:22:08.777Z,96983.28
2023-01-05T01:27:10.927Z,96984.44
2023-01-05T01:32:14.171Z,96941.56
2023-01-05T01:37:17.344Z,96958.66
2023-01-05T01:42:24.497Z,96959.53
2023-01-05T01:47:37.493Z,96960.78
2023-01-05T01:52:41.035Z,96936.66
2023-01-05T01:57:46.119Z,96951.03
2023-01-05T02:02:54.968Z,96929.75
2023-01-05T02:07:59.236Z,96914.88
2023-01-05T02:13:35.601Z,96934.06
2023-01-05T02:18:54.841Z,96926.88
2023-01-05T02:24:06.643Z,96928.97
2023-01-05T02:29:15.131Z,96925.34
2023-01-05T02:34:31.327Z,96908.00
2023-01-05T02:39:57.117Z,96892.84
2023-01-05T02:45:05.837Z,96883.03
2023-01-05T02:50:14.820Z,96878.53
2023-01-05T02:55:21.955Z,96862.59
2023-01-05T03:00:36.617Z,96850.13
2023-01-05T03:05:44.786Z,96848.44
2023-01-05T03:11:18.457Z,96816.69
2023-01-05T03:16:30.143Z,96826.63
2023-01-05T03:21:54.142Z,96818.63
2023-01-05T03:27:17.211Z,96823.28
2023-01-05T03:32:45.223Z,96821.97
2023-01-05T03:38:01.047Z,96803.13
2023-01-05T03:43:06.327Z,96812.53
2023-01-05T03:48:09.177Z,96802.81
2023-01-05T03:53:12.259Z,96778.63
2023-01-05T03:58:15.005Z,96800.34
2023-01-05T04:03:26.319Z,96828.63
2023-01-05T04:08:32.548Z,96815.19
2023-01-05T04:13:36.010Z,96776.91
2023-01-05T04:18:38.819Z,96782.78
2023-01-05T04:23:41.701Z,96776.28
2023-01-05T04:28:44.260Z,96784.03
2023-01-05T04:33:48.063Z,96764.53
2023-01-05T04:38:53.965Z,96762.09
2023-01-05T04:43:57.313Z,96765.06
2023-01-05T04:49:00.128Z,96742.56
2023-01-05T04:54:02.499Z,96765.28
2023-01-05T04:59:06.391Z,96741.00
2023-01-05T05:04:11.009Z,96716.13
2023-01-05T05:09:13.605Z,96744.25
2023-01-05T05:14:16.105Z,96746.72
2023-01-05T05:19:19.276Z,96708.31
2023-01-05T05:24:21.911Z,96725.72
2023-01-05T05:29:25.984Z,96732.25
2023-01-05T05:34:28.503Z,96704.31
2023-01-05T05:39:30.686Z,96704.72
2023-01-05T05:44:33.125Z,96718.22
2023-01-05T05:49:35.565Z,96733.84
2023-01-05T05:54:37.921Z,96714.47
2023-01-05T05:59:40.031Z,96727.13
2023-01-05T06:04:42.626Z,96723.72
2023-01-05T06:09:45.357Z,96722.13
2023-01-05T06:14:47.572Z,96697.28
2023-01-05T06:19:49.721Z,96707.91
2023-01-05T06:24:52.177Z,96657.00
2023-01-05T06:29:54.567Z,96714.47
2023-01-05T06:34:56.799Z,96701.25
2023-01-05T06:40:00.185Z,96712.25
2023-01-05T06:45:02.411Z,96699.38
2023-01-05T06:50:04.978Z,96703.41
2023-01-05T06:55:09.128Z,96686.72
2023-01-05T07:00:12.779Z,96666.13
2023-01-05T07:05:15.226Z,96641.53
2023-01-05T07:10:17.644Z,96621.56
2023-01-05T07:15:19.770Z,96654.34
2023-01-05T07:20:22.150Z,96647.94
2023-01-05T07:25:24.826Z,96618.91
2023-01-05T07:30:31.333Z,96622.94
2023-01-05T07:35:33.666Z,96598.69
2023-01-05T07:40:36.444Z,96579.47
2023-01-05T07:45:40.141Z,96547.47
2023-01-05T07:50:42.440Z,96544.53
2023-01-05T07:55:44.863Z,96565.94
2023-01-05T08:00:47.321Z,96530.19
2023-01-05T08:05:49.946Z,96513.38
2023-01-05T08:10:52.157Z,96500.13
2023-01-05T08:15:55.694Z,96526.47
2023-01-05T08:21:01.033Z,96496.66
2023-01-05T08:26:12.070Z,96515.63
2023-01-05T08:31:16.606Z,96518.47
2023-01-05T08:36:20.835Z,96515.56
2023-01-05T08:41:36.008Z,96482.03
2023-01-05T08:46:44.201Z,96490.88
2023-01-05T08:51:46.461Z,96464.84
2023-01-05T08:56:50.934Z,96464.84
2023-01-05T09:01:53.599Z,96482.19
2023-01-05T09:06:56.578Z,96439.41
2023-01-05T09:11:58.712Z,96428.00
2023-01-05T09:17:09.166Z,96410.09
2023-01-05T09:22:12.047Z,96422.59
2023-01-05T09:27:14.311Z,96415.28
2023-01-05T09:32:16.490Z,96384.16
2023-01-05T09:37:18.887Z,96398.44
2023-01-05T09:42:24.526Z,96362.28
2023-01-05T09:47:37.871Z,96365.16
2023-01-05T09:52:40.226Z,96331.72
2023-01-05T09:57:51.059Z,96315.28
2023-01-05T10:02:55.831Z,96339.25
2023-01-05T10:08:14.126Z,96300.38
2023-01-05T10:13:26.710Z,96327.63
2023-01-05T10:18:31.494Z,96329.03
2023-01-05T10:23:56.317Z,96329.47
2023-01-05T10:29:11.041Z,96315.28
2023-01-05T10:34:37.902Z,96304.88
2023-01-05T10:40:12.589Z,96290.13
2023-01-05T10:45:20.075Z,96283.66
2023-01-05T10:50:40.994Z,96303.38
2023-01-05T10:55:50.775Z,96300.63
2023-01-05T11:00:57.130Z,96272.69
2023-01-05T11:06:00.356Z,96270.28
2023-01-05T11:11:08.244Z,96282.91
2023-01-05T11:16:14.595Z,96270.09
2023-01-05T11:21:25.377Z,96246.47
2023-01-05T11:26:36.349Z,96220.94
2023-01-05T11:31:53.908Z,96235.91
2023-01-05T11:37:08.613Z,96241.31
2023-01-05T11:42:26.054Z,96230.88
2023-01-05T11:47:58.490Z,96229.44
2023-01-05T11:53:02.856Z,96215.88
2023-01-05T11:58:26.616Z,96200.63
2023-01-05T12:04:02.815Z,96221.66
2023-01-05T12:09:51.203Z,96228.59
2023-01-05T12:15:30.870Z,96195.25
2023-01-05T12:20:56.367Z,96223.91
2023-01-05T12:26:21.394Z,96192.97
2023-01-05T12:33:35.824Z,96229.19
2023-01-05T12:37:22.283Z,96251.28
2023-01-05T12:42:49.382Z,96237.22
2023-01-05T12:48:27.837Z,96228.25
2023-01-05T12:53:50.068Z,96219.78
2023-01-05T12:59:25.105Z,96164.38
2023-01-05T13:04:49.371Z,96171.09
2023-01-05T13:10:04.659Z,96157.66
2023-01-05T13:15:16.744Z,96172.47
2023-01-05T13:20:46.933Z,96132.72
2023-01-05T13:26:03.311Z,96141.94
2023-01-05T13:31:21.100Z,96178.56
2023-01-05T13:36:48.467Z,96188.16
2023-01-05T13:42:09.380Z,96185.22
2023-01-05T13:47:57.222Z,96177.44
2023-01-05T13:53:15.831Z,96137.66
2023-01-05T13:58:38.988Z,96164.56
2023-01-05T14:09:23.399Z,96149.88
2023-01-05T14:19:33.435Z,96172.44
2023-01-05T14:29:47.354Z,96161.50
2023-01-05T14:34:52.906Z,96157.09
2023-01-05T14:40:04.091Z,96152.84
2023-01-05T14:45:32.820Z,96161.25
2023-01-05T14:50:41.238Z,96133.38
2023-01-05T14:55:52.987Z,96172.22
2023-01-05T15:01:04.854Z,96147.88
2023-01-05T15:06:13.090Z,96186.63
2023-01-05T15:11:51.259Z,96175.56
2023-01-05T15:17:13.711Z,96165.44
2023-01-05T15:22:39.231Z,96190.59
2023-01-05T15:28:18.781Z,96197.16
2023-01-05T15:33:40.606Z,96202.28
2023-01-05T15:38:48.117Z,96191.53
2023-01-05T15:43:51.355Z,96173.84
2023-01-05T15:48:55.071Z,96178.53
2023-01-05T15:54:05.666Z,96186.06
2023-01-05T15:59:39.509Z,96161.13
2023-01-05T16:04:41.828Z,96198.00
2023-01-05T16:09:47.194Z,96195.34
2023-01-05T16:14:58.324Z,96180.19
2023-01-05T16:20:03.783Z,96192.03
2023-01-05T16:25:40.260Z,96180.13
2023-01-05T16:30:43.821Z,96199.13
2023-01-05T16:35:48.191Z,96194.16
2023-01-05T16:40:50.526Z,96217.75
2023-01-05T16:45:58.552Z,96193.91
2023-01-05T16:51:05.431Z,96205.91
2023-01-05T16:56:41.977Z,96180.50
2023-01-05T17:01:45.443Z,96206.41
2023-01-05T17:06:50.644Z,96193.78
2023-01-05T17:11:53.474Z,96176.09
2023-01-05T17:16:55.960Z,96206.81
2023-01-05T17:22:01.228Z,96171.81
2023-01-05T17:27:03.631Z,96217.44
2023-01-05T17:32:05.854Z,96178.00
2023-01-05T17:37:14.521Z,96196.97
2023-01-05T17:42:35.286Z,96209.78
2023-01-05T17:47:37.772Z,96196.72
2023-01-05T17:52:40.074Z,96205.53
2023-01-05T17:57:42.749Z,96173.75
2023-01-05T18:02:45.100Z,96175.19
2023-01-05T18:07:47.933Z,96197.31
2023-01-05T18:12:50.745Z,96173.22
2023-01-05T18:17:57.374Z,96187.84
2023-01-05T18:22:59.762Z,96216.66
2023-01-05T18:28:02.436Z,96204.56
2023-01-05T18:33:04.832Z,96169.66
2023-01-05T18:38:07.255Z,96156.38
2023-01-05T18:43:09.824Z,96161.72
2023-01-05T18:48:12.316Z,96193.19
2023-01-05T18:53:14.796Z,96191.13
2023-01-05T18:58:17.362Z,96144.84
2023-01-05T19:03:19.571Z,96201.81
2023-01-05T19:08:21.949Z,96195.94
2023-01-05T19:13:24.211Z,96192.00
2023-01-05T19:18:27.048Z,96215.84
2023-01-05T19:23:31.322Z,96232.72
2023-01-05T19:28:38.361Z,96181.84
2023-01-05T19:33:42.166Z,96237.88
2023-01-05T19:38:47.577Z,96200.88
2023-01-05T19:43:52.024Z,96238.06
2023-01-05T19:48:55.267Z,96220.19
2023-01-05T19:54:00.152Z,96200.75
2023-01-05T19:59:05.768Z,96210.03
2023-01-05T20:04:08.091Z,96247.41
2023-01-05T20:09:16.796Z,96240.03
2023-01-05T20:14:19.531Z,96260.94
2023-01-05T20:19:23.745Z,96255.25
2023-01-05T20:24:29.150Z,96227.13
2023-01-05T20:29:31.870Z,96277.13
2023-01-05T20:34:37.154Z,96269.28
2023-01-05T20:39:41.022Z,96252.69
2023-01-05T20:44:46.041Z,96232.88
2023-01-05T20:49:48.711Z,96221.91
2023-01-05T20:54:52.780Z,96243.91
2023-01-05T20:59:55.210Z,96226.53
2023-01-05T21:04:57.581Z,96251.00
2023-01-05T21:09:59.913Z,96267.97
2023-01-05T21:15:02.294Z,96240.06
2023-01-05T21:20:04.827Z,96224.81
2023-01-05T21:25:07.536Z,96234.09
2023-01-05T21:30:13.694Z,96268.66
2023-01-05T21:35:16.039Z,96272.66
2023-01-05T21:40:18.487Z,96241.59
2023-01-05T21:45:20.958Z,96267.16
2023-01-05T21:50:41.988Z,96259.34
2023-01-05T21:56:02.936Z,96243.38
2023-01-05T22:01:05.467Z,96214.91
2023-01-05T22:06:08.155Z,96207.13
2023-01-05T22:11:10.671Z,96225.50
2023-01-05T22:16:12.914Z,96213.53
2023-01-05T22:21:15.348Z,96205.94
2023-01-05T22:26:19.357Z,96235.09
2023-01-05T22:31:33.291Z,96217.75
2023-01-05T22:36:36.039Z,96239.06
2023-01-05T22:41:38.257Z,96232.47
2023-01-05T22:46:40.522Z,96216.50
2023-01-05T22:51:43.054Z,96253.56
2023-01-05T22:56:45.298Z,96217.75
2023-01-05T23:01:48.004Z,96241.97
2023-01-05T23:06:50.229Z,96249.34
2023-01-05T23:11:52.566Z,96258.47
2023-01-05T23:16:54.992Z,96242.78
2023-01-05T23:21:57.212Z,96243.09
2023-01-05T23:26:59.364Z,96218.94
2023-01-05T23:32:01.720Z,96219.16
2023-01-05T23:37:04.138Z,96205.47
2023-01-05T23:42:06.387Z,96229.19
2023-01-05T23:47:08.616Z,96232.09
2023-01-05T23:52:10.938Z,96206.91
2023-01-05T23:57:13.236Z,96234.97
